sensor_id;sensor_type;location;lat;lon;timestamp;pressure;altitude;pressure_sealevel;temperature;humidity
21838;BME280;11081;45.946;6.140;2024-01-30T00:00:17;96582.78;;;6.21;82.45
21838;BME280;11081;45.946;6.140;2024-01-30T00:02:45;96584.72;;;6.19;82.39
21838;BME280;11081;45.946;6.140;2024-01-30T00:05:14;96586.34;;;6.20;82.77
21838;BME280;11081;45.946;6.140;2024-01-30T00:07:42;96582.13;;;6.19;82.58
21838;BME280;11081;45.946;6.140;2024-01-30T00:10:10;96583.59;;;6.21;82.65
21838;BME280;11081;45.946;6.140;2024-01-30T00:12:39;96587.03;;;6.30;82.46
21838;BME280;11081;45.946;6.140;2024-01-30T00:15:07;96588.66;;;6.31;82.32
21838;BME280;11081;45.946;6.140;2024-01-30T00:17:36;96593.84;;;6.31;81.51
21838;BME280;11081;45.946;6.140;2024-01-30T00:20:05;96584.59;;;6.28;81.63
21838;BME280;11081;45.946;6.140;2024-01-30T00:22:35;96578.63;;;6.28;81.67
21838;BME280;11081;45.946;6.140;2024-01-30T00:25:04;96580.84;;;6.23;81.57
21838;BME280;11081;45.946;6.140;2024-01-30T00:27:32;96582.44;;;6.16;82.13
21838;BME280;11081;45.946;6.140;2024-01-30T00:30:01;96589.88;;;6.10;82.15
21838;BME280;11081;45.946;6.140;2024-01-30T00:32:29;96586.97;;;6.14;82.49
21838;BME280;11081;45.946;6.140;2024-01-30T00:34:57;96581.81;;;6.14;81.66
21838;BME280;11081;45.946;6.140;2024-01-30T00:37:25;96592.16;;;6.14;81.58
21838;BME280;11081;45.946;6.140;2024-01-30T00:39:53;96592.16;;;6.14;82.24
21838;BME280;11081;45.946;6.140;2024-01-30T00:42:21;96583.41;;;6.15;82.24
21838;BME280;11081;45.946;6.140;2024-01-30T00:44:51;96584.72;;;6.19;81.46
21838;BME280;11081;45.946;6.140;2024-01-30T00:47:21;96575.16;;;6.19;81.49
21838;BME280;11081;45.946;6.140;2024-01-30T00:49:49;96574.34;;;6.19;80.98
21838;BME280;11081;45.946;6.140;2024-01-30T00:52:17;96579.88;;;6.16;81.05
21838;BME280;11081;45.946;6.140;2024-01-30T00:54:45;96571.44;;;6.14;81.58
21838;BME280;11081;45.946;6.140;2024-01-30T00:57:13;96573.72;;;6.17;81.46
21838;BME280;11081;45.946;6.140;2024-01-30T00:59:41;96575.97;;;6.11;81.17
21838;BME280;11081;45.946;6.140;2024-01-30T01:02:09;96578.88;;;6.08;81.55
21838;BME280;11081;45.946;6.140;2024-01-30T01:04:38;96575.31;;;6.09;81.06
21838;BME280;11081;45.946;6.140;2024-01-30T01:07:06;96578.22;;;6.06;81.39
21838;BME280;11081;45.946;6.140;2024-01-30T01:09:34;96572.38;;;6.04;81.31
21838;BME280;11081;45.946;6.140;2024-01-30T01:12:03;96579.78;;;5.99;82.08
21838;BME280;11081;45.946;6.140;2024-01-30T01:14:31;96567.31;;;5.95;82.33
21838;BME280;11081;45.946;6.140;2024-01-30T01:16:59;96576.22;;;5.92;82.39
21838;BME280;11081;45.946;6.140;2024-01-30T01:19:27;96564.88;;;5.93;81.81
21838;BME280;11081;45.946;6.140;2024-01-30T01:21:56;96563.25;;;5.92;82.46
21838;BME280;11081;45.946;6.140;2024-01-30T01:24:24;96561.31;;;5.94;82.08
21838;BME280;11081;45.946;6.140;2024-01-30T01:26:52;96571.38;;;5.97;82.59
21838;BME280;11081;45.946;6.140;2024-01-30T01:29:20;96573.00;;;5.98;82.25
21838;BME280;11081;45.946;6.140;2024-01-30T01:31:55;96574.00;;;6.05;81.22
21838;BME280;11081;45.946;6.140;2024-01-30T01:34:23;96570.44;;;6.06;81.74
21838;BME280;11081;45.946;6.140;2024-01-30T01:36:57;96567.50;;;6.01;81.94
21838;BME280;11081;45.946;6.140;2024-01-30T01:39:25;96571.72;;;6.02;81.57
21838;BME280;11081;45.946;6.140;2024-01-30T01:41:53;96565.88;;;6.00;81.80
21838;BME280;11081;45.946;6.140;2024-01-30T01:44:21;96568.63;;;5.99;82.62
21838;BME280;11081;45.946;6.140;2024-01-30T01:46:50;96571.69;;;5.94;82.31
21838;BME280;11081;45.946;6.140;2024-01-30T01:49:19;96577.19;;;5.91;82.92
21838;BME280;11081;45.946;6.140;2024-01-30T01:51:48;96569.03;;;5.86;83.26
21838;BME280;11081;45.946;6.140;2024-01-30T01:54:18;96569.34;;;5.83;83.73
21838;BME280;11081;45.946;6.140;2024-01-30T01:56:46;96567.72;;;5.82;83.21
21838;BME280;11081;45.946;6.140;2024-01-30T01:59:15;96564.19;;;5.83;83.70
21838;BME280;11081;45.946;6.140;2024-01-30T02:01:43;96564.47;;;5.80;82.81
21838;BME280;11081;45.946;6.140;2024-01-30T02:04:13;96560.25;;;5.79;83.42
21838;BME280;11081;45.946;6.140;2024-01-30T02:06:41;96562.53;;;5.82;83.48
21838;BME280;11081;45.946;6.140;2024-01-30T02:09:10;96563.22;;;5.84;82.26
21838;BME280;11081;45.946;6.140;2024-01-30T02:11:40;96558.03;;;5.84;82.98
21838;BME280;11081;45.946;6.140;2024-01-30T02:14:09;96559.28;;;5.80;83.03
21838;BME280;11081;45.946;6.140;2024-01-30T02:16:37;96565.81;;;5.84;83.01
21838;BME280;11081;45.946;6.140;2024-01-30T02:19:05;96566.44;;;5.86;83.21
21838;BME280;11081;45.946;6.140;2024-01-30T02:21:35;96560.91;;;5.81;82.60
21838;BME280;11081;45.946;6.140;2024-01-30T02:24:04;96557.66;;;5.79;82.86
21838;BME280;11081;45.946;6.140;2024-01-30T02:26:33;96555.72;;;5.81;83.41
21838;BME280;11081;45.946;6.140;2024-01-30T02:29:01;96555.44;;;5.84;83.46
21838;BME280;11081;45.946;6.140;2024-01-30T02:31:29;96555.44;;;5.84;83.74
21838;BME280;11081;45.946;6.140;2024-01-30T02:33:57;96550.25;;;5.84;83.40
21838;BME280;11081;45.946;6.140;2024-01-30T02:36:25;96556.84;;;5.78;83.99
21838;BME280;11081;45.946;6.140;2024-01-30T02:38:55;96555.72;;;5.81;84.10
21838;BME280;11081;45.946;6.140;2024-01-30T02:41:23;96548.63;;;5.83;83.72
21838;BME280;11081;45.946;6.140;2024-01-30T02:43:51;96555.72;;;5.81;83.48
21838;BME280;11081;45.946;6.140;2024-01-30T02:46:19;96554.47;;;5.85;83.04
21838;BME280;11081;45.946;6.140;2024-01-30T02:48:47;96547.66;;;5.84;83.76
21838;BME280;11081;45.946;6.140;2024-01-30T02:51:15;96553.75;;;5.75;83.67
21838;BME280;11081;45.946;6.140;2024-01-30T02:53:43;96547.63;;;5.76;82.82
21838;BME280;11081;45.946;6.140;2024-01-30T02:56:12;96555.53;;;5.74;83.37
21838;BME280;11081;45.946;6.140;2024-01-30T02:58:40;96557.16;;;5.75;84.02
21838;BME280;11081;45.946;6.140;2024-01-30T03:01:09;96552.13;;;5.66;83.84
21838;BME280;11081;45.946;6.140;2024-01-30T03:03:37;96551.47;;;5.64;83.18
21838;BME280;11081;45.946;6.140;2024-01-30T03:06:07;96554.72;;;5.66;83.95
21838;BME280;11081;45.946;6.140;2024-01-30T03:08:35;96555.16;;;5.61;83.64
21838;BME280;11081;45.946;6.140;2024-01-30T03:11:04;96555.16;;;5.61;84.28
21838;BME280;11081;45.946;6.140;2024-01-30T03:13:33;96557.28;;;5.66;83.59
21838;BME280;11081;45.946;6.140;2024-01-30T03:16:01;96555.69;;;5.65;82.94
21838;BME280;11081;45.946;6.140;2024-01-30T03:18:29;96561.81;;;5.64;83.44
21838;BME280;11081;45.946;6.140;2024-01-30T03:20:57;96560.84;;;5.65;82.86
21838;BME280;11081;45.946;6.140;2024-01-30T03:23:25;96555.38;;;5.68;82.91
21838;BME280;11081;45.946;6.140;2024-01-30T03:25:53;96556.97;;;5.69;83.64
21838;BME280;11081;45.946;6.140;2024-01-30T03:28:21;96564.09;;;5.67;83.18
21838;BME280;11081;45.946;6.140;2024-01-30T03:30:51;96554.22;;;5.62;83.87
21838;BME280;11081;45.946;6.140;2024-01-30T03:33:19;96550.78;;;5.62;83.34
21838;BME280;11081;45.946;6.140;2024-01-30T03:35:47;96561.44;;;5.59;83.04
21838;BME280;11081;45.946;6.140;2024-01-30T03:38:15;96549.84;;;5.63;83.73
21838;BME280;11081;45.946;6.140;2024-01-30T03:40:43;96558.91;;;5.67;83.16
21838;BME280;11081;45.946;6.140;2024-01-30T03:43:11;96559.22;;;5.64;82.72
21838;BME280;11081;45.946;6.140;2024-01-30T03:45:39;96559.22;;;5.64;83.05
21838;BME280;11081;45.946;6.140;2024-01-30T03:48:08;96552.72;;;5.60;83.55
21838;BME280;11081;45.946;6.140;2024-01-30T03:50:36;96565.81;;;5.58;83.14
21838;BME280;11081;45.946;6.140;2024-01-30T03:53:05;96561.75;;;5.56;83.46
21838;BME280;11081;45.946;6.140;2024-01-30T03:55:33;96564.19;;;5.57;83.24
21838;BME280;11081;45.946;6.140;2024-01-30T03:58:01;96559.50;;;5.61;82.73
21838;BME280;11081;45.946;6.140;2024-01-30T04:00:29;96559.22;;;5.64;83.03
21838;BME280;11081;45.946;6.140;2024-01-30T04:02:57;96556.59;;;5.56;83.07
21838;BME280;11081;45.946;6.140;2024-01-30T04:05:26;96562.06;;;5.53;83.66
21838;BME280;11081;45.946;6.140;2024-01-30T04:07:54;96555.78;;;5.55;83.23
21838;BME280;11081;45.946;6.140;2024-01-30T04:10:23;96558.69;;;5.60;83.34
21838;BME280;11081;45.946;6.140;2024-01-30T04:12:51;96555.47;;;5.58;82.31
21838;BME280;11081;45.946;6.140;2024-01-30T04:15:21;96553.84;;;5.57;83.01
21838;BME280;11081;45.946;6.140;2024-01-30T04:17:48;96552.22;;;5.56;83.11
21838;BME280;11081;45.946;6.140;2024-01-30T04:20:17;96552.53;;;5.53;83.10
21838;BME280;11081;45.946;6.140;2024-01-30T04:22:46;96552.66;;;5.43;83.17
21838;BME280;11081;45.946;6.140;2024-01-30T04:25:14;96559.44;;;5.44;82.77
21838;BME280;11081;45.946;6.140;2024-01-30T04:27:42;96561.06;;;5.45;83.48
21838;BME280;11081;45.946;6.140;2024-01-30T04:30:11;96566.75;;;5.23;84.17
21838;BME280;11081;45.946;6.140;2024-01-30T04:32:39;96563.91;;;5.08;86.24
21838;BME280;11081;45.946;6.140;2024-01-30T04:35:07;96558.44;;;5.11;85.62
21838;BME280;11081;45.946;6.140;2024-01-30T04:37:38;96571.50;;;5.10;85.32
21838;BME280;11081;45.946;6.140;2024-01-30T04:40:08;96561.47;;;5.07;85.34
21838;BME280;11081;45.946;6.140;2024-01-30T04:42:36;96571.50;;;5.10;84.43
21838;BME280;11081;45.946;6.140;2024-01-30T04:45:06;96568.28;;;5.08;85.09
21838;BME280;11081;45.946;6.140;2024-01-30T04:47:34;96571.81;;;5.07;84.63
21838;BME280;11081;45.946;6.140;2024-01-30T04:50:02;96566.66;;;5.07;84.77
21838;BME280;11081;45.946;6.140;2024-01-30T04:52:31;96569.59;;;5.12;84.48
21838;BME280;11081;45.946;6.140;2024-01-30T04:54:59;96560.19;;;5.11;84.65
21838;BME280;11081;45.946;6.140;2024-01-30T04:57:29;96567.34;;;5.17;84.36
21838;BME280;11081;45.946;6.140;2024-01-30T04:59:57;96569.28;;;5.15;84.60
21838;BME280;11081;45.946;6.140;2024-01-30T05:02:25;96567.53;;;4.98;84.92
21838;BME280;11081;45.946;6.140;2024-01-30T05:04:53;96579.69;;;4.79;85.32
21838;BME280;11081;45.946;6.140;2024-01-30T05:07:21;96578.50;;;4.56;87.33
21838;BME280;11081;45.946;6.140;2024-01-30T05:09:49;96576.50;;;4.50;87.51
21838;BME280;11081;45.946;6.140;2024-01-30T05:12:19;96582.28;;;4.62;88.25
21838;BME280;11081;45.946;6.140;2024-01-30T05:14:49;96582.59;;;4.58;87.47
21838;BME280;11081;45.946;6.140;2024-01-30T05:17:17;96584.41;;;4.66;87.28
21838;BME280;11081;45.946;6.140;2024-01-30T05:19:44;96585.13;;;4.76;87.21
21838;BME280;11081;45.946;6.140;2024-01-30T05:22:13;96586.19;;;4.83;86.82
21838;BME280;11081;45.946;6.140;2024-01-30T05:24:42;96591.88;;;4.87;85.13
21838;BME280;11081;45.946;6.140;2024-01-30T05:27:10;96585.88;;;4.86;85.77
21838;BME280;11081;45.946;6.140;2024-01-30T05:29:40;96592.97;;;4.84;85.92
21838;BME280;11081;45.946;6.140;2024-01-30T05:32:09;96587.50;;;4.87;85.92
21838;BME280;11081;45.946;6.140;2024-01-30T05:34:38;96589.13;;;4.88;85.14
21838;BME280;11081;45.946;6.140;2024-01-30T05:37:05;96592.38;;;4.90;85.21
21838;BME280;11081;45.946;6.140;2024-01-30T05:39:33;96591.88;;;4.87;85.26
21838;BME280;11081;45.946;6.140;2024-01-30T05:42:02;96592.97;;;4.84;85.91
21838;BME280;11081;45.946;6.140;2024-01-30T05:44:30;96591.06;;;4.86;85.74
21838;BME280;11081;45.946;6.140;2024-01-30T05:46:58;96596.59;;;4.92;86.56
21838;BME280;11081;45.946;6.140;2024-01-30T05:49:28;96594.53;;;4.77;86.44
21838;BME280;11081;45.946;6.140;2024-01-30T05:51:56;96594.09;;;4.82;87.33
21838;BME280;11081;45.946;6.140;2024-01-30T05:54:24;96600.81;;;4.93;86.46
21838;BME280;11081;45.946;6.140;2024-01-30T05:56:52;96593.41;;;4.98;86.01
21838;BME280;11081;45.946;6.140;2024-01-30T05:59:20;96595.03;;;4.99;86.50
21838;BME280;11081;45.946;6.140;2024-01-30T06:01:48;96600.19;;;4.99;86.07
21838;BME280;11081;45.946;6.140;2024-01-30T06:04:16;96608.91;;;4.98;87.01
21838;BME280;11081;45.946;6.140;2024-01-30T06:06:46;96606.94;;;4.92;87.17
21838;BME280;11081;45.946;6.140;2024-01-30T06:09:14;96615.00;;;4.88;87.08
21838;BME280;11081;45.946;6.140;2024-01-30T06:11:42;96616.78;;;4.88;87.06
21838;BME280;11081;45.946;6.140;2024-01-30T06:14:10;96615.66;;;4.90;86.96
21838;BME280;11081;45.946;6.140;2024-01-30T06:16:38;96619.88;;;4.92;86.30
21838;BME280;11081;45.946;6.140;2024-01-30T06:19:06;96619.56;;;4.95;86.36
21838;BME280;11081;45.946;6.140;2024-01-30T06:21:34;96626.88;;;4.99;87.33
21838;BME280;11081;45.946;6.140;2024-01-30T06:24:05;96632.28;;;5.06;86.58
21838;BME280;11081;45.946;6.140;2024-01-30T06:26:34;96630.06;;;5.11;86.73
21838;BME280;11081;45.946;6.140;2024-01-30T06:29:02;96631.38;;;5.15;85.99
21838;BME280;11081;45.946;6.140;2024-01-30T06:31:30;96627.13;;;5.06;86.16
21838;BME280;11081;45.946;6.140;2024-01-30T06:33:58;96633.91;;;5.07;86.06
21838;BME280;11081;45.946;6.140;2024-01-30T06:36:26;96630.81;;;5.03;87.28
21838;BME280;11081;45.946;6.140;2024-01-30T06:38:54;96635.53;;;5.08;87.00
21838;BME280;11081;45.946;6.140;2024-01-30T06:41:23;96642.69;;;4.96;86.89
21838;BME280;11081;45.946;6.140;2024-01-30T06:43:52;96637.63;;;4.86;86.46
21838;BME280;11081;45.946;6.140;2024-01-30T06:46:20;96639.53;;;4.84;88.10
21838;BME280;11081;45.946;6.140;2024-01-30T06:48:48;96642.78;;;4.86;88.26
21838;BME280;11081;45.946;6.140;2024-01-30T06:51:16;96648.97;;;4.94;87.97
21838;BME280;11081;45.946;6.140;2024-01-30T06:53:44;96640.78;;;4.98;87.22
21838;BME280;11081;45.946;6.140;2024-01-30T06:56:12;96648.38;;;5.00;87.65
21838;BME280;11081;45.946;6.140;2024-01-30T06:58:41;96645.69;;;5.01;87.67
21838;BME280;11081;45.946;6.140;2024-01-30T07:01:09;96655.47;;;4.98;86.98
21838;BME280;11081;45.946;6.140;2024-01-30T07:03:38;96647.66;;;4.89;88.02
21838;BME280;11081;45.946;6.140;2024-01-30T07:06:06;96652.75;;;4.81;89.12
21838;BME280;11081;45.946;6.140;2024-01-30T07:08:34;96667.16;;;4.66;88.54
21838;BME280;11081;45.946;6.140;2024-01-30T07:11:04;96659.47;;;4.74;88.88
21838;BME280;11081;45.946;6.140;2024-01-30T07:13:32;96666.44;;;4.92;88.97
21838;BME280;11081;45.946;6.140;2024-01-30T07:16:01;96661.09;;;5.11;88.24
21838;BME280;11081;45.946;6.140;2024-01-30T07:18:30;96659.19;;;5.13;86.81
21838;BME280;11081;45.946;6.140;2024-01-30T07:20:58;96661.84;;;5.21;86.15
21838;BME280;11081;45.946;6.140;2024-01-30T07:23:26;96678.31;;;5.20;85.90
21838;BME280;11081;45.946;6.140;2024-01-30T07:25:54;96678.19;;;5.22;86.61
21838;BME280;11081;45.946;6.140;2024-01-30T07:28:22;96671.25;;;5.22;86.29
21838;BME280;11081;45.946;6.140;2024-01-30T07:30:50;96669.66;;;5.29;85.32
21838;BME280;11081;45.946;6.140;2024-01-30T07:33:19;96669.38;;;5.32;85.45
21838;BME280;11081;45.946;6.140;2024-01-30T07:35:48;96667.44;;;5.34;85.70
21838;BME280;11081;45.946;6.140;2024-01-30T07:38:16;96673.22;;;5.28;86.64
21838;BME280;11081;45.946;6.140;2024-01-30T07:40:44;96676.72;;;5.01;87.44
21838;BME280;11081;45.946;6.140;2024-01-30T07:43:12;96682.19;;;4.80;88.17
21838;BME280;11081;45.946;6.140;2024-01-30T07:45:40;96682.88;;;4.73;88.02
21838;BME280;11081;45.946;6.140;2024-01-30T07:48:08;96677.19;;;4.69;88.70
21838;BME280;11081;45.946;6.140;2024-01-30T07:50:38;96688.44;;;4.60;89.15
21838;BME280;11081;45.946;6.140;2024-01-30T07:53:06;96682.06;;;4.72;88.83
21838;BME280;11081;45.946;6.140;2024-01-30T07:55:34;96695.09;;;4.80;87.65
21838;BME280;11081;45.946;6.140;2024-01-30T07:58:02;96684.47;;;4.83;88.32
21838;BME280;11081;45.946;6.140;2024-01-30T08:00:31;96695.53;;;4.94;87.38
21838;BME280;11081;45.946;6.140;2024-01-30T08:02:59;96689.56;;;5.11;87.29
21838;BME280;11081;45.946;6.140;2024-01-30T08:05:27;96688.41;;;5.23;86.11
21838;BME280;11081;45.946;6.140;2024-01-30T08:07:56;96690.69;;;5.26;86.02
21838;BME280;11081;45.946;6.140;2024-01-30T08:10:25;96688.97;;;5.35;85.64
21838;BME280;11081;45.946;6.140;2024-01-30T08:12:53;96683.72;;;5.44;86.60
21838;BME280;11081;45.946;6.140;2024-01-30T08:15:21;96682.50;;;5.57;85.96
21838;BME280;11081;45.946;6.140;2024-01-30T08:17:49;96693.81;;;5.56;86.33
21838;BME280;11081;45.946;6.140;2024-01-30T08:20:22;96689.91;;;5.51;86.17
21838;BME280;11081;45.946;6.140;2024-01-30T08:22:50;96696.66;;;5.44;86.78
21838;BME280;11081;45.946;6.140;2024-01-30T08:25:20;96699.47;;;5.33;88.62
21838;BME280;11081;45.946;6.140;2024-01-30T08:27:48;96692.72;;;5.40;87.97
21838;BME280;11081;45.946;6.140;2024-01-30T08:30:17;96706.25;;;5.52;88.65
21838;BME280;11081;45.946;6.140;2024-01-30T08:32:45;96696.72;;;5.53;88.52
21838;BME280;11081;45.946;6.140;2024-01-30T08:35:14;96696.09;;;5.59;87.84
21838;BME280;11081;45.946;6.140;2024-01-30T08:37:43;96699.25;;;5.70;86.65
21838;BME280;11081;45.946;6.140;2024-01-30T08:40:11;96695.31;;;5.84;86.28
21838;BME280;11081;45.946;6.140;2024-01-30T08:42:40;96697.66;;;5.95;85.76
21838;BME280;11081;45.946;6.140;2024-01-30T08:45:09;96693.22;;;6.05;86.03
21838;BME280;11081;45.946;6.140;2024-01-30T08:47:37;96684.16;;;6.09;86.26
21838;BME280;11081;45.946;6.140;2024-01-30T08:50:06;96693.56;;;6.10;86.03
21838;BME280;11081;45.946;6.140;2024-01-30T08:52:35;96699.09;;;6.16;86.36
21838;BME280;11081;45.946;6.140;2024-01-30T08:55:03;96704.97;;;6.26;86.40
21838;BME280;11081;45.946;6.140;2024-01-30T08:57:32;96697.84;;;6.28;86.85
21838;BME280;11081;45.946;6.140;2024-01-30T09:00:01;96703.34;;;6.25;87.28
21838;BME280;11081;45.946;6.140;2024-01-30T09:02:33;96705.56;;;6.20;89.28
21838;BME280;11081;45.946;6.140;2024-01-30T09:05:02;96699.72;;;6.09;90.51
21838;BME280;11081;45.946;6.140;2024-01-30T09:07:30;96706.81;;;6.07;89.67
21838;BME280;11081;45.946;6.140;2024-01-30T09:09:58;96702.84;;;5.95;89.86
21838;BME280;11081;45.946;6.140;2024-01-30T09:12:26;96701.63;;;6.07;89.23
21838;BME280;11081;45.946;6.140;2024-01-30T09:14:54;96701.69;;;6.24;89.15
21838;BME280;11081;45.946;6.140;2024-01-30T09:17:24;96708.91;;;6.38;87.54
21838;BME280;11081;45.946;6.140;2024-01-30T09:19:52;96695.47;;;6.42;87.02
21838;BME280;11081;45.946;6.140;2024-01-30T09:22:20;96703.78;;;6.46;86.91
21838;BME280;11081;45.946;6.140;2024-01-30T09:24:48;96702.50;;;6.50;86.00
21838;BME280;11081;45.946;6.140;2024-01-30T09:27:16;96702.19;;;6.61;85.71
21838;BME280;11081;45.946;6.140;2024-01-30T09:29:44;96701.22;;;6.62;84.93
21838;BME280;11081;45.946;6.140;2024-01-30T09:32:12;96704.47;;;6.64;85.67
21838;BME280;11081;45.946;6.140;2024-01-30T09:34:41;96699.97;;;6.75;85.63
21838;BME280;11081;45.946;6.140;2024-01-30T09:37:09;96702.56;;;6.83;85.16
21838;BME280;11081;45.946;6.140;2024-01-30T09:39:37;96709.72;;;6.81;84.95
21838;BME280;11081;45.946;6.140;2024-01-30T09:42:14;96712.16;;;6.82;85.66
21838;BME280;11081;45.946;6.140;2024-01-30T09:44:47;96706.50;;;6.95;85.33
21838;BME280;11081;45.946;6.140;2024-01-30T09:47:18;96710.13;;;7.10;84.70
21838;BME280;11081;45.946;6.140;2024-01-30T09:49:48;96714.34;;;7.19;84.41
21838;BME280;11081;45.946;6.140;2024-01-30T09:52:16;96716.63;;;7.30;83.72
21838;BME280;11081;45.946;6.140;2024-01-30T09:54:45;96707.22;;;7.38;83.91
21838;BME280;11081;45.946;6.140;2024-01-30T09:57:13;96704.94;;;7.43;83.73
21838;BME280;11081;45.946;6.140;2024-01-30T09:59:42;96711.44;;;7.47;84.27
21838;BME280;11081;45.946;6.140;2024-01-30T10:02:10;96719.25;;;7.55;83.81
21838;BME280;11081;45.946;6.140;2024-01-30T10:04:38;96723.13;;;7.67;83.95
21838;BME280;11081;45.946;6.140;2024-01-30T10:07:10;96728.97;;;7.61;85.10
21838;BME280;11081;45.946;6.140;2024-01-30T10:09:39;96731.75;;;7.59;85.79
21838;BME280;11081;45.946;6.140;2024-01-30T10:12:08;96727.19;;;7.70;85.49
21838;BME280;11081;45.946;6.140;2024-01-30T10:14:37;96723.63;;;7.79;85.34
21838;BME280;11081;45.946;6.140;2024-01-30T10:17:07;96727.34;;;7.92;84.23
21838;BME280;11081;45.946;6.140;2024-01-30T10:19:47;96732.03;;;8.05;83.30
21838;BME280;11081;45.946;6.140;2024-01-30T10:22:16;96722.75;;;8.11;83.19
21838;BME280;11081;45.946;6.140;2024-01-30T10:24:45;96719.84;;;8.14;83.61
21838;BME280;11081;45.946;6.140;2024-01-30T10:27:13;96725.31;;;8.27;83.23
21838;BME280;11081;45.946;6.140;2024-01-30T10:29:41;96730.50;;;8.43;83.42
21838;BME280;11081;45.946;6.140;2024-01-30T10:32:09;96722.34;;;8.54;83.63
21838;BME280;11081;45.946;6.140;2024-01-30T10:34:37;96723.75;;;8.65;82.39
21838;BME280;11081;45.946;6.140;2024-01-30T10:37:07;96719.84;;;8.69;82.30
21838;BME280;11081;45.946;6.140;2024-01-30T10:39:41;96718.69;;;8.72;82.76
21838;BME280;11081;45.946;6.140;2024-01-30T10:42:12;96721.91;;;8.74;82.33
21838;BME280;11081;45.946;6.140;2024-01-30T10:44:46;96714.09;;;8.82;82.51
21838;BME280;11081;45.946;6.140;2024-01-30T10:47:19;96710.28;;;8.93;81.93
21838;BME280;11081;45.946;6.140;2024-01-30T10:49:49;96708.47;;;9.01;82.26
21838;BME280;11081;45.946;6.140;2024-01-30T10:52:20;96704.19;;;9.08;81.51
21838;BME280;11081;45.946;6.140;2024-01-30T10:54:50;96704.13;;;9.16;80.96
21838;BME280;11081;45.946;6.140;2024-01-30T10:57:19;96709.84;;;9.12;80.77
21838;BME280;11081;45.946;6.140;2024-01-30T10:59:47;96705.78;;;9.09;78.99
21838;BME280;11081;45.946;6.140;2024-01-30T11:02:16;96707.06;;;9.13;80.02
21838;BME280;11081;45.946;6.140;2024-01-30T11:04:45;96701.53;;;9.16;79.63
21838;BME280;11081;45.946;6.140;2024-01-30T11:07:15;96701.53;;;9.16;79.43
21838;BME280;11081;45.946;6.140;2024-01-30T11:09:51;96700.59;;;9.09;79.02
21838;BME280;11081;45.946;6.140;2024-01-30T11:12:23;96697.28;;;9.15;78.89
21838;BME280;11081;45.946;6.140;2024-01-30T11:15:02;96697.59;;;9.21;79.48
21838;BME280;11081;45.946;6.140;2024-01-30T11:17:43;96694.56;;;9.32;79.11
21838;BME280;11081;45.946;6.140;2024-01-30T11:20:15;96701.41;;;9.33;79.39
21838;BME280;11081;45.946;6.140;2024-01-30T11:22:45;96698.97;;;9.31;79.04
21838;BME280;11081;45.946;6.140;2024-01-30T11:25:17;96691.34;;;9.30;78.57
21838;BME280;11081;45.946;6.140;2024-01-30T11:27:46;96694.91;;;9.29;78.74
21838;BME280;11081;45.946;6.140;2024-01-30T11:30:21;96690.34;;;9.31;79.07
21838;BME280;11081;45.946;6.140;2024-01-30T11:33:05;96693.22;;;9.36;77.75
21838;BME280;11081;45.946;6.140;2024-01-30T11:35:35;96690.31;;;9.39;76.55
21838;BME280;11081;45.946;6.140;2024-01-30T11:38:03;96695.53;;;9.39;76.72
21838;BME280;11081;45.946;6.140;2024-01-30T11:40:34;96686.72;;;9.40;76.85
21838;BME280;11081;45.946;6.140;2024-01-30T11:43:05;96690.63;;;9.36;76.21
21838;BME280;11081;45.946;6.140;2024-01-30T11:45:34;96689.00;;;9.35;75.71
21838;BME280;11081;45.946;6.140;2024-01-30T11:48:03;96688.34;;;9.41;76.62
21838;BME280;11081;45.946;6.140;2024-01-30T11:50:33;96682.06;;;9.50;75.78
21838;BME280;11081;45.946;6.140;2024-01-30T11:53:01;96683.94;;;9.56;75.09
21838;BME280;11081;45.946;6.140;2024-01-30T11:55:30;96682.00;;;9.58;74.53
21838;BME280;11081;45.946;6.140;2024-01-30T11:58:02;96675.31;;;9.56;74.01
21838;BME280;11081;45.946;6.140;2024-01-30T12:00:31;96675.81;;;9.59;73.69
21838;BME280;11081;45.946;6.140;2024-01-30T12:03:00;96673.47;;;9.64;73.81
21838;BME280;11081;45.946;6.140;2024-01-30T12:05:30;96673.13;;;9.67;73.28
21838;BME280;11081;45.946;6.140;2024-01-30T12:07:58;96672.41;;;9.73;71.50
21838;BME280;11081;45.946;6.140;2024-01-30T12:10:28;96669.16;;;9.71;70.49
21838;BME280;11081;45.946;6.140;2024-01-30T12:12:57;96662.34;;;9.70;71.52
21838;BME280;11081;45.946;6.140;2024-01-30T12:15:27;96653.78;;;9.62;71.97
21838;BME280;11081;45.946;6.140;2024-01-30T12:18:03;96658.56;;;9.58;72.26
21838;BME280;11081;45.946;6.140;2024-01-30T12:20:32;96655.41;;;9.63;72.68
21838;BME280;11081;45.946;6.140;2024-01-30T12:23:00;96644.34;;;9.75;72.03
21838;BME280;11081;45.946;6.140;2024-01-30T12:25:28;96649.50;;;9.84;71.60
21838;BME280;11081;45.946;6.140;2024-01-30T12:27:57;96652.66;;;9.94;71.35
21838;BME280;11081;45.946;6.140;2024-01-30T12:30:27;96647.25;;;10.10;70.10
21838;BME280;11081;45.946;6.140;2024-01-30T12:32:55;96648.75;;;10.27;71.03
21838;BME280;11081;45.946;6.140;2024-01-30T12:35:24;96637.19;;;10.36;70.47
21838;BME280;11081;45.946;6.140;2024-01-30T12:37:56;96641.72;;;10.43;68.91
21838;BME280;11081;45.946;6.140;2024-01-30T12:40:25;96642.97;;;10.47;69.26
21838;BME280;11081;45.946;6.140;2024-01-30T12:42:53;96639.72;;;10.45;68.92
21838;BME280;11081;45.946;6.140;2024-01-30T12:45:21;96638.09;;;10.44;68.79
21838;BME280;11081;45.946;6.140;2024-01-30T12:47:51;96637.56;;;10.33;67.61
21838;BME280;11081;45.946;6.140;2024-01-30T12:50:19;96633.22;;;10.41;67.68
21838;BME280;11081;45.946;6.140;2024-01-30T12:52:48;96627.91;;;10.49;66.66
21838;BME280;11081;45.946;6.140;2024-01-30T12:55:16;96628.63;;;10.57;66.68
21838;BME280;11081;45.946;6.140;2024-01-30T12:57:45;96630.31;;;10.65;66.17
21838;BME280;11081;45.946;6.140;2024-01-30T13:00:13;96627.97;;;10.70;65.23
21838;BME280;11081;45.946;6.140;2024-01-30T13:02:44;96624.72;;;10.68;66.05
21838;BME280;11081;45.946;6.140;2024-01-30T13:05:13;96623.50;;;10.64;65.42
21838;BME280;11081;45.946;6.140;2024-01-30T13:07:41;96623.13;;;10.67;66.00
21838;BME280;11081;45.946;6.140;2024-01-30T13:10:10;96612.31;;;10.70;65.07
21838;BME280;11081;45.946;6.140;2024-01-30T13:12:38;96615.16;;;10.75;64.08
21838;BME280;11081;45.946;6.140;2024-01-30T13:15:06;96607.84;;;10.85;65.13
21838;BME280;11081;45.946;6.140;2024-01-30T13:17:35;96609.28;;;10.88;63.85